PDG61 EGCM-EGCM
Flight info
| Callsign | PDG61 |
|---|---|
| Flight time | 0h 43m |
| Altitude | 400 |
| Route | LOW VOLTAGE POWERLINE INSPECTION |
| Aircraft | AS55/L-VGD/A |
Departure
| Time | 2026-04-20 20:31 |
|---|---|
| Airport | Leeds East Airport (EGCM) |
Arrival
| Time | 2026-04-20 21:14 |
|---|---|
| Airport | Leeds East Airport (EGCM) |
| Time | Latitude | Longitude | Altitude | Speed | Heading |
|---|---|---|---|---|---|
| 2026-04-20 20:20 | 53.83362 | -1.20134 | 28 ft | 0 kts | 179° |
| 2026-04-20 20:31 | 53.83362 | -1.20133 | 28 ft | 0 kts | 169° |
| 2026-04-20 20:31 | 53.83338 | -1.19914 | 55 ft | 66 kts | 90° |
| 2026-04-20 20:31 | 53.83659 | -1.19102 | 402 ft | 82 kts | 50° |
| 2026-04-20 20:31 | 53.84045 | -1.18257 | 747 ft | 94 kts | 50° |
| 2026-04-20 20:32 | 53.84176 | -1.17198 | 1173 ft | 98 kts | 92° |
| 2026-04-20 20:32 | 53.83759 | -1.16263 | 1494 ft | 112 kts | 137° |
| 2026-04-20 20:32 | 53.82945 | -1.15618 | 1335 ft | 144 kts | 153° |
| 2026-04-20 20:32 | 53.81967 | -1.15036 | 1245 ft | 151 kts | 154° |
| 2026-04-20 20:33 | 53.80987 | -1.14357 | 1246 ft | 149 kts | 149° |
| 2026-04-20 20:33 | 53.80038 | -1.13661 | 1237 ft | 153 kts | 157° |
| 2026-04-20 20:33 | 53.79019 | -1.13302 | 1362 ft | 145 kts | 165° |
| 2026-04-20 20:33 | 53.77961 | -1.13150 | 1236 ft | 153 kts | 173° |
| 2026-04-20 20:34 | 53.76895 | -1.13166 | 1263 ft | 154 kts | 176° |
| 2026-04-20 20:34 | 53.75815 | -1.13260 | 1272 ft | 157 kts | 179° |
| 2026-04-20 20:34 | 53.74717 | -1.13393 | 1272 ft | 158 kts | 180° |
| 2026-04-20 20:34 | 53.73618 | -1.13551 | 1283 ft | 160 kts | 180° |
| 2026-04-20 20:35 | 53.72511 | -1.13724 | 1278 ft | 160 kts | 180° |
| 2026-04-20 20:35 | 53.71401 | -1.13908 | 1276 ft | 161 kts | 181° |
| 2026-04-20 20:35 | 53.70295 | -1.14101 | 1274 ft | 159 kts | 181° |
| 2026-04-20 20:35 | 53.69206 | -1.14298 | 1273 ft | 156 kts | 181° |
| 2026-04-20 20:36 | 53.68134 | -1.14496 | 1279 ft | 158 kts | 181° |
| 2026-04-20 20:36 | 53.67031 | -1.14703 | 1275 ft | 160 kts | 181° |
| 2026-04-20 20:36 | 53.65936 | -1.14907 | 1162 ft | 147 kts | 182° |
| 2026-04-20 20:36 | 53.65106 | -1.15112 | 828 ft | 97 kts | 183° |
| 2026-04-20 20:37 | 53.64541 | -1.15239 | 1035 ft | 77 kts | 185° |
| 2026-04-20 20:37 | 53.63989 | -1.15553 | 1026 ft | 90 kts | 197° |
| 2026-04-20 20:37 | 53.63379 | -1.15942 | 664 ft | 93 kts | 187° |
| 2026-04-20 20:37 | 53.62781 | -1.15827 | 397 ft | 84 kts | 161° |
| 2026-04-20 20:38 | 53.62328 | -1.15630 | 380 ft | 59 kts | 169° |
| 2026-04-20 20:38 | 53.62108 | -1.15719 | 277 ft | 15 kts | 7° |
| 2026-04-20 20:38 | 53.62135 | -1.15876 | 329 ft | 14 kts | 40° |
| 2026-04-20 20:38 | 53.61901 | -1.15909 | 130 ft | 43 kts | 265° |
| 2026-04-20 20:39 | 53.61849 | -1.15969 | 142 ft | 4 kts | 356° |
| 2026-04-20 20:39 | 53.61865 | -1.16011 | 166 ft | 9 kts | 344° |
| 2026-04-20 20:39 | 53.61809 | -1.16135 | 229 ft | 48 kts | 255° |
| 2026-04-20 20:39 | 53.61677 | -1.16618 | 113 ft | 34 kts | 325° |
| 2026-04-20 20:40 | 53.61641 | -1.16825 | 101 ft | 3 kts | 343° |
| 2026-04-20 20:40 | 53.61628 | -1.16991 | 104 ft | 17 kts | 342° |
| 2026-04-20 20:40 | 53.61501 | -1.17257 | 70 ft | 41 kts | 266° |
| 2026-04-20 20:40 | 53.61293 | -1.17602 | 75 ft | 38 kts | 272° |
| 2026-04-20 20:41 | 53.61125 | -1.17929 | 79 ft | 34 kts | 281° |
| 2026-04-20 20:41 | 53.60985 | -1.18296 | 310 ft | 41 kts | 257° |
| 2026-04-20 20:41 | 53.60844 | -1.18707 | 143 ft | 42 kts | 272° |
| 2026-04-20 20:41 | 53.60705 | -1.19079 | 154 ft | 37 kts | 277° |
| 2026-04-20 20:42 | 53.60606 | -1.19327 | 147 ft | 15 kts | 314° |
| 2026-04-20 20:42 | 53.60536 | -1.19527 | 127 ft | 18 kts | 332° |
| 2026-04-20 20:42 | 53.60470 | -1.19775 | 172 ft | 29 kts | 312° |
| 2026-04-20 20:42 | 53.60393 | -1.20108 | 168 ft | 29 kts | 328° |
| 2026-04-20 20:43 | 53.60320 | -1.20402 | 146 ft | 32 kts | 304° |
| 2026-04-20 20:43 | 53.60174 | -1.20666 | 156 ft | 30 kts | 213° |
| 2026-04-20 20:43 | 53.60053 | -1.20851 | 139 ft | 39 kts | 221° |
| 2026-04-20 20:43 | 53.59986 | -1.20903 | 137 ft | 1 kts | 344° |
| 2026-04-20 20:44 | 53.59986 | -1.20902 | 136 ft | 1 kts | 344° |
| 2026-04-20 20:45 | 53.60019 | -1.20879 | 180 ft | 24 kts | 198° |
| 2026-04-20 20:45 | 53.59815 | -1.21169 | 168 ft | 35 kts | 252° |
| 2026-04-20 20:46 | 53.59626 | -1.21451 | 125 ft | 42 kts | 227° |
| 2026-04-20 20:46 | 53.59489 | -1.21663 | 191 ft | 22 kts | 60° |
| 2026-04-20 20:46 | 53.59505 | -1.21685 | 189 ft | 15 kts | 87° |
| 2026-04-20 20:46 | 53.59492 | -1.21668 | 173 ft | 1 kts | 73° |
| 2026-04-20 20:48 | 53.59405 | -1.21758 | 157 ft | 31 kts | 213° |
| 2026-04-20 20:48 | 53.59173 | -1.22012 | 185 ft | 40 kts | 126° |
| 2026-04-20 20:48 | 53.58850 | -1.22072 | 126 ft | 35 kts | 128° |
| 2026-04-20 20:48 | 53.58574 | -1.22085 | 136 ft | 30 kts | 39° |
| 2026-04-20 20:49 | 53.58381 | -1.22090 | 217 ft | 35 kts | 158° |
| 2026-04-20 20:49 | 53.58152 | -1.22026 | 136 ft | 52 kts | 171° |
| 2026-04-20 20:49 | 53.58067 | -1.21955 | 205 ft | 28 kts | 282° |
| 2026-04-20 20:49 | 53.58052 | -1.21957 | 223 ft | 24 kts | 322° |
| 2026-04-20 20:50 | 53.57933 | -1.21929 | 198 ft | 37 kts | 167° |
| 2026-04-20 20:50 | 53.57809 | -1.21960 | 198 ft | 50 kts | 114° |
| 2026-04-20 20:50 | 53.57682 | -1.21975 | 218 ft | 25 kts | 87° |
| 2026-04-20 20:50 | 53.57499 | -1.21998 | 239 ft | 41 kts | 186° |
| 2026-04-20 20:51 | 53.57430 | -1.22087 | 243 ft | 22 kts | 75° |
| 2026-04-20 20:51 | 53.57157 | -1.22070 | 242 ft | 55 kts | 202° |
| 2026-04-20 20:51 | 53.56757 | -1.22198 | 256 ft | 72 kts | 186° |
| 2026-04-20 20:51 | 53.56554 | -1.21892 | 250 ft | 19 kts | 69° |
| 2026-04-20 20:52 | 53.56534 | -1.21699 | 257 ft | 29 kts | 89° |
| 2026-04-20 20:52 | 53.56517 | -1.21349 | 261 ft | 41 kts | 322° |
| 2026-04-20 20:52 | 53.56518 | -1.21331 | 271 ft | 15 kts | 64° |
| 2026-04-20 20:52 | 53.56463 | -1.21283 | 181 ft | 33 kts | 72° |
| 2026-04-20 20:53 | 53.56516 | -1.21006 | 280 ft | 8 kts | 197° |
| 2026-04-20 20:53 | 53.56457 | -1.21273 | 242 ft | 53 kts | 314° |
| 2026-04-20 20:53 | 53.56404 | -1.21782 | 258 ft | 34 kts | 278° |
| 2026-04-20 20:53 | 53.56314 | -1.22108 | 158 ft | 25 kts | 266° |
| 2026-04-20 20:54 | 53.56287 | -1.22458 | 224 ft | 49 kts | 310° |
| 2026-04-20 20:54 | 53.56380 | -1.23007 | 340 ft | 60 kts | 295° |
| 2026-04-20 20:54 | 53.56521 | -1.23889 | 279 ft | 82 kts | 291° |
| 2026-04-20 20:54 | 53.56675 | -1.24788 | 387 ft | 58 kts | 265° |
| 2026-04-20 20:55 | 53.56644 | -1.24654 | 366 ft | 26 kts | 34° |
| 2026-04-20 20:55 | 53.56576 | -1.24829 | 443 ft | 28 kts | 31° |
| 2026-04-20 20:55 | 53.56479 | -1.25208 | 381 ft | 54 kts | 242° |
| 2026-04-20 20:55 | 53.56294 | -1.25718 | 359 ft | 53 kts | 257° |
| 2026-04-20 20:56 | 53.56160 | -1.26314 | 333 ft | 52 kts | 260° |
| 2026-04-20 20:56 | 53.56026 | -1.26884 | 325 ft | 50 kts | 261° |
| 2026-04-20 20:56 | 53.55941 | -1.27326 | 346 ft | 38 kts | 278° |
| 2026-04-20 20:56 | 53.55978 | -1.27935 | 352 ft | 40 kts | 208° |
| 2026-04-20 20:57 | 53.55908 | -1.28209 | 326 ft | 33 kts | 155° |
| 2026-04-20 20:57 | 53.55822 | -1.28545 | 366 ft | 13 kts | 7° |
| 2026-04-20 20:57 | 53.55604 | -1.28685 | 362 ft | 42 kts | 267° |
| 2026-04-20 20:57 | 53.55254 | -1.28979 | 273 ft | 66 kts | 245° |
| 2026-04-20 20:58 | 53.54941 | -1.29077 | 279 ft | 46 kts | 118° |
| 2026-04-20 20:58 | 53.54646 | -1.29101 | 367 ft | 29 kts | 248° |
| 2026-04-20 20:58 | 53.54535 | -1.29111 | 351 ft | 8 kts | 201° |
| 2026-04-20 20:58 | 53.54374 | -1.29210 | 308 ft | 19 kts | 277° |
| 2026-04-20 20:59 | 53.54332 | -1.29358 | 309 ft | 17 kts | 334° |
| 2026-04-20 20:59 | 53.54446 | -1.29311 | 263 ft | 44 kts | 111° |
| 2026-04-20 20:59 | 53.54471 | -1.28875 | 247 ft | 56 kts | 159° |
| 2026-04-20 20:59 | 53.54072 | -1.28814 | 314 ft | 52 kts | 233° |
| 2026-04-20 21:00 | 53.53820 | -1.28704 | 301 ft | 18 kts | 142° |
| 2026-04-20 21:00 | 53.53647 | -1.28700 | 267 ft | 61 kts | 153° |
| 2026-04-20 21:00 | 53.53281 | -1.28429 | 315 ft | 34 kts | 175° |
| 2026-04-20 21:00 | 53.53231 | -1.28458 | 239 ft | 4 kts | 21° |
| 2026-04-20 21:01 | 53.53243 | -1.28456 | 229 ft | 3 kts | 25° |
| 2026-04-20 21:01 | 53.53135 | -1.28411 | 263 ft | 12 kts | 35° |
| 2026-04-20 21:01 | 53.53041 | -1.28374 | 295 ft | 37 kts | 64° |
| 2026-04-20 21:02 | 53.52929 | -1.28341 | 256 ft | 28 kts | 89° |
| 2026-04-20 21:02 | 53.52919 | -1.28511 | 233 ft | 30 kts | 269° |
| 2026-04-20 21:02 | 53.52918 | -1.28512 | 292 ft | 31 kts | 244° |
| 2026-04-20 21:02 | 53.52967 | -1.28871 | 248 ft | 16 kts | 320° |
| 2026-04-20 21:03 | 53.52969 | -1.28944 | 172 ft | 8 kts | 350° |
| 2026-04-20 21:03 | 53.53064 | -1.28958 | 374 ft | 17 kts | 346° |
| 2026-04-20 21:03 | 53.53191 | -1.29231 | 263 ft | 36 kts | 152° |
| 2026-04-20 21:03 | 53.53003 | -1.29057 | 261 ft | 23 kts | 126° |
| 2026-04-20 21:04 | 53.52898 | -1.29035 | 225 ft | 18 kts | 206° |
| 2026-04-20 21:04 | 53.52873 | -1.29098 | 220 ft | 18 kts | 30° |
| 2026-04-20 21:04 | 53.52941 | -1.29018 | 195 ft | 3 kts | 50° |
| 2026-04-20 21:04 | 53.52942 | -1.29016 | 194 ft | 4 kts | 53° |
| 2026-04-20 21:05 | 53.52980 | -1.29179 | 225 ft | 58 kts | 343° |
| 2026-04-20 21:05 | 53.53421 | -1.29241 | 808 ft | 59 kts | 2° |
| 2026-04-20 21:05 | 53.53930 | -1.29177 | 1091 ft | 90 kts | 14° |
| 2026-04-20 21:05 | 53.54546 | -1.28959 | 1431 ft | 99 kts | 15° |
| 2026-04-20 21:06 | 53.55296 | -1.28670 | 1476 ft | 122 kts | 16° |
| 2026-04-20 21:06 | 53.56190 | -1.28295 | 1294 ft | 141 kts | 17° |
| 2026-04-20 21:06 | 53.57158 | -1.27862 | 1185 ft | 145 kts | 17° |
| 2026-04-20 21:06 | 53.58136 | -1.27411 | 1146 ft | 147 kts | 17° |
| 2026-04-20 21:07 | 53.59111 | -1.26949 | 1121 ft | 144 kts | 18° |
| 2026-04-20 21:07 | 53.60072 | -1.26489 | 1118 ft | 143 kts | 18° |
| 2026-04-20 21:07 | 53.61032 | -1.26030 | 1118 ft | 144 kts | 18° |
| 2026-04-20 21:07 | 53.61992 | -1.25567 | 1114 ft | 143 kts | 18° |
| 2026-04-20 21:08 | 53.62939 | -1.25115 | 1120 ft | 140 kts | 17° |
| 2026-04-20 21:08 | 53.63883 | -1.24663 | 1121 ft | 143 kts | 18° |
| 2026-04-20 21:08 | 53.64840 | -1.24195 | 1119 ft | 144 kts | 18° |
| 2026-04-20 21:08 | 53.65795 | -1.23725 | 1120 ft | 142 kts | 18° |
| 2026-04-20 21:09 | 53.66740 | -1.23261 | 1115 ft | 141 kts | 18° |
| 2026-04-20 21:09 | 53.67688 | -1.22795 | 1116 ft | 142 kts | 18° |
| 2026-04-20 21:09 | 53.68641 | -1.22326 | 1114 ft | 143 kts | 18° |
| 2026-04-20 21:09 | 53.69593 | -1.21859 | 1118 ft | 143 kts | 18° |
| 2026-04-20 21:10 | 53.70546 | -1.21391 | 1115 ft | 142 kts | 18° |
| 2026-04-20 21:10 | 53.71484 | -1.20933 | 1116 ft | 140 kts | 18° |
| 2026-04-20 21:10 | 53.72425 | -1.20471 | 1116 ft | 141 kts | 18° |
| 2026-04-20 21:10 | 53.73359 | -1.20006 | 1119 ft | 140 kts | 18° |
| 2026-04-20 21:11 | 53.74300 | -1.19535 | 1121 ft | 143 kts | 18° |
| 2026-04-20 21:11 | 53.75242 | -1.19062 | 1123 ft | 144 kts | 18° |
| 2026-04-20 21:11 | 53.76204 | -1.18577 | 1114 ft | 145 kts | 18° |
| 2026-04-20 21:11 | 53.77174 | -1.18084 | 1100 ft | 145 kts | 18° |
| 2026-04-20 21:12 | 53.78139 | -1.17592 | 1097 ft | 144 kts | 18° |
| 2026-04-20 21:12 | 53.79097 | -1.17101 | 1097 ft | 144 kts | 18° |
| 2026-04-20 21:12 | 53.80047 | -1.16614 | 1104 ft | 142 kts | 19° |
| 2026-04-20 21:12 | 53.81014 | -1.16425 | 661 ft | 147 kts | 348° |
| 2026-04-20 21:13 | 53.81873 | -1.17151 | 641 ft | 132 kts | 322° |
| 2026-04-20 21:13 | 53.82345 | -1.18364 | 701 ft | 122 kts | 287° |
| 2026-04-20 21:13 | 53.82320 | -1.19775 | 721 ft | 122 kts | 256° |
| 2026-04-20 21:13 | 53.82096 | -1.21064 | 718 ft | 101 kts | 292° |
| 2026-04-20 21:14 | 53.82611 | -1.21538 | 544 ft | 85 kts | 26° |
| 2026-04-20 21:14 | 53.82930 | -1.20785 | 83 ft | 87 kts | 64° |
| 2026-04-20 21:14 | 53.83233 | -1.20110 | 63 ft | 57 kts | 42° |
| 2026-04-20 21:14 | 53.83346 | -1.19880 | 79 ft | 9 kts | 278° |
| 2026-04-20 21:15 | 53.83340 | -1.20014 | 81 ft | 15 kts | 333° |
| 2026-04-20 21:15 | 53.83358 | -1.20075 | 30 ft | 0 kts | 345° |